Time;durP1;ratioP1;P1;durP2;ratioP2;P2;SDS_P1;SDS_P2;PMS_P1;PMS_P2;Temp;Humidity;BMP_temperature;BMP_pressure;BME280_temperature;BME280_humidity;BME280_pressure;Samples;Min_cycle;Max_cycle;Signal;HPM_P1;HPM_P2
2022/01/23 00:00:35;;;;;;;16.25;8.63;;;;;;;-1.64;66.50;100397.86;1668677;85;21000;-69
2022/01/23 00:03:06;;;;;;;15.10;9.18;;;;;;;-1.63;66.45;100391.62;1669099;85;21114;-69
2022/01/23 00:05:34;;;;;;;15.68;9.33;;;;;;;-1.59;66.42;100398.11;1668943;86;21036;-70
2022/01/23 00:07:58;;;;;;;13.78;9.10;;;;;;;-1.61;66.30;100397.47;1668056;86;21068;-70
2022/01/23 00:10:25;;;;;;;14.20;9.00;;;;;;;-1.60;66.30;100398.61;1669021;85;21562;-69
2022/01/23 00:13:01;;;;;;;15.88;9.20;;;;;;;-1.53;66.31;100400.01;1668143;85;21075;-70
2022/01/23 00:18:06;;;;;;;15.08;8.90;;;;;;;-1.46;66.15;100405.64;1668994;86;21119;-69
2022/01/23 00:20:33;;;;;;;15.43;9.25;;;;;;;-1.44;66.12;100409.41;1668761;86;20997;-70
2022/01/23 00:23:10;;;;;;;14.58;9.00;;;;;;;-1.41;66.15;100407.73;1669187;86;21540;-69
2022/01/23 00:31:00;;;;;;;13.62;8.53;;;;;;;-1.41;66.17;100409.04;1669204;86;21522;-69
2022/01/23 00:33:26;;;;;;;12.43;7.87;;;;;;;-1.45;66.15;100415.61;1669183;85;20984;-70
2022/01/23 00:35:54;;;;;;;12.75;8.43;;;;;;;-1.46;66.21;100410.06;1669329;86;21538;-70
2022/01/23 00:38:22;;;;;;;11.73;7.40;;;;;;;-1.47;66.25;100411.07;1669039;86;20965;-70
2022/01/23 00:40:49;;;;;;;14.05;8.48;;;;;;;-1.47;66.25;100415.81;1668885;85;21092;-69
2022/01/23 00:43:30;;;;;;;14.00;8.60;;;;;;;-1.47;66.26;100416.31;1669294;86;21520;-69
2022/01/23 00:46:49;;;;;;;15.23;8.58;;;;;;;-1.45;66.27;100412.52;1668971;85;21014;-69
2022/01/23 00:48:29;;;;;;;12.45;8.23;;;;;;;-1.40;66.26;100410.66;1652205;86;21508;-70
2022/01/23 00:50:53;;;;;;;11.93;7.78;;;;;;;-1.38;66.17;100407.84;1668563;86;21096;-69
2022/01/23 00:53:20;;;;;;;12.25;7.72;;;;;;;-1.43;66.11;100411.02;1669315;84;21028;-69
2022/01/23 00:55:47;;;;;;;12.55;7.83;;;;;;;-1.54;66.01;100405.75;1668969;86;21075;-69
2022/01/23 00:58:14;;;;;;;13.62;8.70;;;;;;;-1.63;66.07;100403.40;1669268;85;21145;-70
2022/01/23 01:00:42;;;;;;;13.58;8.38;;;;;;;-1.70;66.11;100400.19;1668559;85;21217;-69
2022/01/23 01:03:08;;;;;;;11.95;8.08;;;;;;;-1.74;66.18;100392.89;1669289;86;21634;-70
2022/01/23 01:05:35;;;;;;;13.03;8.85;;;;;;;-1.71;66.27;100395.12;1668928;85;21068;-69
2022/01/23 01:08:04;;;;;;;11.80;8.75;;;;;;;-1.71;66.33;100390.72;1669425;86;21024;-69
2022/01/23 01:10:48;;;;;;;12.60;8.20;;;;;;;-1.67;66.35;100390.67;1669005;85;21048;-70
2022/01/23 01:13:11;;;;;;;11.95;7.85;;;;;;;-1.60;66.36;100389.95;1668863;85;21764;-69
2022/01/23 01:16:03;;;;;;;13.55;8.20;;;;;;;-1.56;66.25;100392.02;1668995;85;21581;-69
2022/01/23 01:32:15;;;;;;;11.55;8.08;;;;;;;-1.57;65.77;100397.45;1666640;85;21127;-69
2022/01/23 01:34:47;;;;;;;13.85;8.80;;;;;;;-1.59;65.65;100403.34;1668958;85;21072;-69
2022/01/23 01:37:10;;;;;;;11.68;8.68;;;;;;;-1.60;65.55;100404.35;1669242;85;21013;-70
2022/01/23 01:39:37;;;;;;;12.82;8.75;;;;;;;-1.60;65.44;100408.28;1668936;85;21575;-69
2022/01/23 01:42:06;;;;;;;15.35;9.13;;;;;;;-1.67;65.44;100410.81;1669376;86;21010;-70
2022/01/23 01:44:33;;;;;;;12.90;8.60;;;;;;;-1.67;65.44;100410.81;1668826;86;21067;-69
2022/01/23 01:47:14;;;;;;;12.28;8.75;;;;;;;-1.77;65.16;100413.69;1653083;86;21550;-69
2022/01/23 01:49:42;;;;;;;14.40;8.83;;;;;;;-1.90;64.93;100418.23;1668839;86;21099;-70
2022/01/23 01:52:10;;;;;;;14.33;8.58;;;;;;;-2.01;64.82;100416.03;1668483;86;21156;-69
2022/01/23 01:54:38;;;;;;;13.88;8.40;;;;;;;-2.09;64.70;100417.44;1668862;86;21041;-70
2022/01/23 01:57:10;;;;;;;13.28;8.98;;;;;;;-2.15;64.59;100410.29;1669255;85;21432;-70
2022/01/23 02:10:50;;;;;;;12.40;8.35;;;;;;;-2.44;64.53;100424.09;1669104;86;21024;-69
2022/01/23 02:13:17;;;;;;;15.60;8.48;;;;;;;-2.45;64.54;100425.09;1669500;85;21100;-69
2022/01/23 02:22:32;;;;;;;13.32;8.30;;;;;;;-2.49;64.37;100427.75;1669141;85;21157;-70
2022/01/23 02:56:49;;;;;;;17.62;10.50;;;;;;;-3.09;66.44;100477.59;1686678;84;21624;-70
2022/01/23 02:59:22;;;;;;;14.85;9.70;;;;;;;-2.95;66.68;100473.44;1685617;84;21184;-69
2022/01/23 03:02:00;;;;;;;16.85;10.45;;;;;;;-2.84;66.76;100474.35;1685476;85;21051;-69
2022/01/23 03:04:23;;;;;;;15.48;9.20;;;;;;;-2.77;66.78;100475.29;1681473;84;20959;-70
2022/01/23 03:07:17;;;;;;;16.37;9.60;;;;;;;-2.76;66.70;100482.17;1686754;84;21050;-70
2022/01/23 03:12:23;;;;;;;14.20;9.33;;;;;;;-2.93;66.53;100476.22;1659057;84;21778;-70
2022/01/23 03:26:12;;;;;;;17.50;9.35;;;;;;;-2.83;66.32;100494.27;1686677;84;22122;-70
2022/01/23 03:30:39;;;;;;;12.25;8.23;;;;;;;-2.81;66.23;100501.95;1658919;85;21001;-69
2022/01/23 03:33:04;;;;;;;13.18;8.38;;;;;;;-2.86;66.06;100502.48;1686630;84;21053;-69
2022/01/23 03:35:30;;;;;;;15.00;8.78;;;;;;;-3.10;65.94;100513.33;1686397;84;20999;-70
2022/01/23 03:37:57;;;;;;;19.17;10.53;;;;;;;-3.38;66.02;100523.88;1686947;84;21106;-70
2022/01/23 03:40:23;;;;;;;18.45;11.68;;;;;;;-3.59;66.14;100533.52;1686504;85;21505;-70
2022/01/23 03:42:57;;;;;;;17.70;11.10;;;;;;;-3.74;66.37;100536.00;1687103;84;20960;-70
2022/01/23 03:50:43;;;;;;;19.15;10.90;;;;;;;-3.93;67.14;100551.98;1686592;85;21553;-70
2022/01/23 03:53:10;;;;;;;16.80;10.80;;;;;;;-3.94;67.38;100556.38;1687159;84;21024;-70
2022/01/23 03:55:38;;;;;;;18.23;11.22;;;;;;;-3.92;67.57;100554.41;1686745;84;21078;-70
2022/01/23 03:58:04;;;;;;;20.05;11.75;;;;;;;-3.85;67.73;100550.66;1687275;84;20987;-71
2022/01/23 04:00:32;;;;;;;15.28;9.65;;;;;;;-3.73;67.78;100561.11;1686557;84;21098;-70
2022/01/23 04:02:58;;;;;;;18.35;9.30;;;;;;;-3.67;67.85;100560.95;1687004;84;21955;-70
2022/01/23 04:05:27;;;;;;;17.65;10.65;;;;;;;-3.65;67.89;100563.73;1686580;85;21554;-70
2022/01/23 04:07:53;;;;;;;16.17;10.13;;;;;;;-3.64;68.01;100563.23;1687109;85;21062;-70
2022/01/23 04:10:22;;;;;;;19.37;11.20;;;;;;;-3.60;68.11;100569.26;1686850;84;21027;-70
2022/01/23 04:33:54;;;;;;;17.15;9.90;;;;;;;-2.82;68.42;100600.47;1686914;84;21071;-70
2022/01/23 04:59:34;;;;;;;14.63;9.85;;;;;;;-2.37;68.14;100630.35;1686972;84;20940;-70
2022/01/23 05:00:52;;;;;;;18.82;9.85;;;;;;;-2.62;68.15;100630.47;1686775;84;21509;-69
2022/01/23 05:06:11;;;;;;;14.75;9.63;;;;;;;-2.74;68.32;100646.18;1665902;84;21427;-69
2022/01/23 05:08:49;;;;;;;15.90;9.38;;;;;;;-2.72;68.43;100650.76;1685855;84;21141;-69
2022/01/23 05:11:37;;;;;;;18.70;10.80;;;;;;;-2.65;68.43;100656.94;1686582;84;21505;-71
2022/01/23 05:14:05;;;;;;;15.75;10.70;;;;;;;-2.57;68.46;100652.66;1686184;84;21015;-70
2022/01/23 05:16:32;;;;;;;22.17;12.53;;;;;;;-2.47;68.48;100661.13;1685934;84;20974;-70
2022/01/23 05:18:59;;;;;;;19.77;11.80;;;;;;;-2.36;68.51;100671.23;1686877;84;20967;-70
2022/01/23 05:24:11;;;;;;;26.95;15.70;;;;;;;-2.22;68.64;100674.44;1686736;84;20962;-69
2022/01/23 05:26:43;;;;;;;28.32;16.75;;;;;;;-2.03;68.53;100692.03;1686467;84;21038;-69
2022/01/23 05:29:06;;;;;;;28.67;17.92;;;;;;;-1.94;68.51;100687.05;1686168;84;21025;-69
2022/01/23 05:31:32;;;;;;;30.25;17.55;;;;;;;-1.82;68.51;100690.92;1685987;83;21109;-71
2022/01/23 05:33:58;;;;;;;26.57;16.48;;;;;;;-1.78;68.34;100701.36;1686739;83;21489;-71
2022/01/23 05:36:26;;;;;;;29.07;16.95;;;;;;;-1.72;68.34;100705.11;1686570;84;21031;-70
2022/01/23 05:38:53;;;;;;;28.60;17.35;;;;;;;-1.73;68.28;100710.03;1686142;83;21553;-69
2022/01/23 05:41:20;;;;;;;29.48;17.35;;;;;;;-1.74;68.30;100711.84;1686611;84;20998;-69
2022/01/23 05:43:48;;;;;;;27.35;15.65;;;;;;;-1.75;68.33;100710.19;1687078;84;21695;-70
2022/01/23 05:46:16;;;;;;;26.40;16.42;;;;;;;-1.77;68.39;100716.11;1686234;84;21789;-69
2022/01/23 05:48:53;;;;;;;29.55;17.00;;;;;;;-1.80;68.47;100720.88;1660875;84;21061;-70
2022/01/23 05:51:21;;;;;;;44.67;21.90;;;;;;;-1.78;68.55;100726.23;1682425;84;20951;-70
2022/01/23 05:54:03;;;;;;;44.20;23.45;;;;;;;-1.82;68.52;100732.81;1686380;83;21081;-69
2022/01/23 05:56:40;;;;;;;39.13;22.10;;;;;;;-1.84;68.59;100743.97;1680761;83;21434;-70
2022/01/23 05:59:21;;;;;;;37.03;19.85;;;;;;;-1.85;68.63;100751.48;1685983;84;22030;-70
2022/01/23 06:01:54;;;;;;;33.28;19.65;;;;;;;-1.83;68.65;100756.06;1685933;83;20995;-70
2022/01/23 06:04:25;;;;;;;35.63;20.48;;;;;;;-1.83;68.65;100756.06;1686201;84;21026;-70
2022/01/23 06:06:58;;;;;;;30.95;18.35;;;;;;;-1.77;68.88;100772.41;1684334;83;21185;-70
2022/01/23 06:09:26;;;;;;;21.70;12.53;;;;;;;-1.73;68.95;100764.52;1687314;84;21474;-69
2022/01/23 06:11:53;;;;;;;16.60;10.53;;;;;;;-1.62;68.91;100775.59;1686879;84;22306;-70
2022/01/23 06:14:20;;;;;;;17.70;10.23;;;;;;;-1.64;68.64;100773.66;1686846;84;20971;-69
2022/01/23 06:16:47;;;;;;;16.62;9.88;;;;;;;-1.72;68.48;100785.00;1686414;84;21086;-70
2022/01/23 06:19:15;;;;;;;17.57;9.60;;;;;;;-1.76;68.67;100785.00;1674638;84;21006;-71
2022/01/23 06:21:59;;;;;;;16.12;9.35;;;;;;;-1.77;68.42;100792.54;1686720;84;20963;-70
2022/01/23 06:24:33;;;;;;;14.47;9.65;;;;;;;-1.80;68.19;100794.19;1678580;84;21765;-69
2022/01/23 06:27:05;;;;;;;15.93;9.68;;;;;;;-1.83;68.30;100798.45;1685359;84;21026;-69
2022/01/23 06:29:34;;;;;;;14.78;9.55;;;;;;;-1.83;68.23;100801.07;1686644;84;21569;-70
2022/01/23 06:32:02;;;;;;;15.48;10.05;;;;;;;-1.88;68.18;100806.80;1686812;84;21567;-70
2022/01/23 06:34:29;;;;;;;15.38;9.88;;;;;;;-1.87;68.16;100812.38;1685976;83;21034;-71
2022/01/23 06:36:56;;;;;;;16.55;9.40;;;;;;;-1.94;68.12;100807.47;1686537;84;22300;-71
2022/01/23 06:39:24;;;;;;;16.00;9.53;;;;;;;-1.94;68.12;100807.47;1686306;84;21094;-70
2022/01/23 06:41:52;;;;;;;18.30;10.18;;;;;;;-2.01;67.88;100813.06;1686361;84;21039;-70
2022/01/23 06:44:37;;;;;;;17.67;10.75;;;;;;;-2.10;67.95;100819.33;1686729;84;21053;-70
2022/01/23 06:47:06;;;;;;;21.68;11.12;;;;;;;-2.12;68.11;100834.68;1686205;84;21491;-69
2022/01/23 06:49:33;;;;;;;18.37;11.30;;;;;;;-2.12;68.20;100833.37;1686786;84;21508;-69
2022/01/23 06:51:59;;;;;;;15.88;10.40;;;;;;;-2.04;68.35;100830.41;1686605;84;20944;-70
2022/01/23 06:54:27;;;;;;;20.75;12.50;;;;;;;-1.98;68.29;100841.52;1686982;84;21035;-69
2022/01/23 06:56:56;;;;;;;24.07;14.87;;;;;;;-1.92;68.34;100849.52;1659363;84;21006;-70
2022/01/23 06:59:23;;;;;;;22.25;13.72;;;;;;;-1.86;68.37;100851.16;1686935;84;21118;-70
2022/01/23 07:01:51;;;;;;;24.85;15.70;;;;;;;-1.83;68.29;100852.94;1685575;84;22140;-70
2022/01/23 07:04:38;;;;;;;21.12;13.00;;;;;;;-1.83;68.27;100852.94;1673792;85;21066;-70
2022/01/23 07:07:15;;;;;;;21.85;12.93;;;;;;;-1.73;68.38;100860.11;1673460;85;21062;-70
2022/01/23 07:09:47;;;;;;;18.92;11.57;;;;;;;-1.68;68.27;100861.73;1679498;85;21422;-70
2022/01/23 07:12:16;;;;;;;19.67;12.28;;;;;;;-1.59;68.12;100872.17;1685404;84;20991;-69
2022/01/23 07:15:00;;;;;;;18.77;11.93;;;;;;;-1.52;67.89;100875.23;1686670;84;21512;-70
2022/01/23 07:17:46;;;;;;;18.35;12.15;;;;;;;-1.46;67.67;100877.68;1685014;84;21259;-70
2022/01/23 07:20:17;;;;;;;19.15;11.05;;;;;;;-1.46;67.46;100882.92;1685018;84;21109;-70
2022/01/23 07:22:44;;;;;;;18.82;11.15;;;;;;;-1.49;67.31;100887.19;1686810;84;21019;-69
2022/01/23 07:25:11;;;;;;;19.62;12.28;;;;;;;-1.49;67.25;100892.43;1686903;84;21012;-70
2022/01/23 07:27:46;;;;;;;19.37;11.15;;;;;;;-1.47;67.23;100899.14;1686724;84;21268;-70
2022/01/23 07:30:20;;;;;;;18.60;11.73;;;;;;;-1.40;67.09;100903.20;1685436;84;20971;-70
2022/01/23 07:32:37;;;;;;;19.40;11.88;;;;;;;-1.39;66.72;100912.69;1684669;84;21478;-70
2022/01/23 07:35:04;;;;;;;18.73;10.82;;;;;;;-1.35;66.85;100914.48;1687022;84;21542;-70
2022/01/23 07:37:31;;;;;;;19.17;12.07;;;;;;;-1.31;66.64;100910.05;1686617;84;21050;-70
2022/01/23 07:40:16;;;;;;;18.50;11.35;;;;;;;-1.27;66.62;100916.58;1686858;84;21166;-71
2022/01/23 07:42:44;;;;;;;17.32;11.33;;;;;;;-1.22;66.52;100922.61;1686748;84;21015;-71
2022/01/23 07:45:32;;;;;;;18.95;12.03;;;;;;;-1.16;66.35;100928.98;1614917;88;21023;-70
2022/01/23 07:48:17;;;;;;;20.25;13.15;;;;;;;-1.16;66.23;100930.30;1615128;87;21110;-70
2022/01/23 07:50:51;;;;;;;20.32;12.55;;;;;;;-1.15;66.15;100935.84;1632384;86;21550;-70
2022/01/23 07:53:19;;;;;;;20.95;13.10;;;;;;;-1.13;66.10;100939.94;1630890;86;21276;-70
2022/01/23 07:55:54;;;;;;;21.07;13.40;;;;;;;-1.08;66.05;100948.13;1641347;87;21016;-70
2022/01/23 07:58:22;;;;;;;26.33;15.55;;;;;;;-1.05;66.02;100948.28;1641137;87;21071;-69
2022/01/23 08:01:08;;;;;;;22.65;15.05;;;;;;;-1.00;66.03;100952.50;1641741;87;21143;-71
2022/01/23 08:03:37;;;;;;;19.57;12.20;;;;;;;-0.95;65.90;100960.69;1641917;87;21511;-70
2022/01/23 08:06:12;;;;;;;21.45;14.00;;;;;;;-0.98;65.69;100964.45;1641932;87;21046;-70
2022/01/23 08:08:39;;;;;;;15.95;11.33;;;;;;;-1.10;65.35;100972.87;1644443;86;20976;-70
2022/01/23 08:11:07;;;;;;;14.43;8.60;;;;;;;-1.32;65.37;100986.20;1668154;86;21092;-70
2022/01/23 08:13:34;;;;;;;12.35;7.15;;;;;;;-1.49;65.33;100997.22;1668783;84;21059;-70
2022/01/23 08:16:00;;;;;;;12.13;7.60;;;;;;;-1.63;65.52;101001.34;1669170;85;21100;-70
2022/01/23 08:18:27;;;;;;;11.22;7.60;;;;;;;-1.73;65.62;100994.97;1668585;86;21094;-70
2022/01/23 08:20:53;;;;;;;15.65;8.73;;;;;;;-1.78;65.79;101007.73;1668966;86;21048;-71
2022/01/23 08:23:21;;;;;;;11.93;7.85;;;;;;;-1.77;65.97;101009.38;1669095;85;21095;-72
2022/01/23 08:25:48;;;;;;;10.95;7.25;;;;;;;-1.74;66.07;101020.84;1668201;84;20981;-70
2022/01/23 08:28:14;;;;;;;11.22;7.50;;;;;;;-1.73;66.08;101024.27;1669267;86;21555;-70
2022/01/23 08:30:41;;;;;;;13.72;8.75;;;;;;;-1.68;66.12;101035.90;1669067;85;21197;-69
2022/01/23 08:33:07;;;;;;;12.70;8.30;;;;;;;-1.60;66.15;101030.32;1668931;85;20997;-71
2022/01/23 08:35:34;;;;;;;13.10;8.18;;;;;;;-1.45;66.19;101038.66;1668814;86;21032;-71
2022/01/23 08:38:02;;;;;;;11.75;7.50;;;;;;;-1.30;65.96;101041.40;1669309;85;21056;-71
2022/01/23 08:40:47;;;;;;;11.43;8.15;;;;;;;-1.23;65.83;101043.67;1669257;85;21075;-70
2022/01/23 08:43:03;;;;;;;15.72;9.68;;;;;;;-1.13;65.77;101047.41;1667896;85;21626;-70
2022/01/23 08:45:29;;;;;;;12.58;8.38;;;;;;;-0.99;65.71;101051.13;1669313;85;20933;-71
2022/01/23 08:47:55;;;;;;;13.10;8.20;;;;;;;-0.79;65.61;101059.42;1669155;85;21076;-70
2022/01/23 08:50:22;;;;;;;14.00;8.93;;;;;;;-0.62;65.12;101060.20;1668459;86;21067;-70
2022/01/23 08:52:49;;;;;;;16.67;10.03;;;;;;;-0.53;64.63;101069.64;1669052;86;21076;-71
2022/01/23 08:55:15;;;;;;;13.88;8.93;;;;;;;-0.53;64.37;101070.48;1669169;86;21021;-71
2022/01/23 08:57:41;;;;;;;14.33;8.93;;;;;;;-0.41;64.17;101068.28;1668889;86;21072;-71
2022/01/23 09:00:10;;;;;;;15.43;9.83;;;;;;;-0.27;63.56;101071.97;1669021;86;21072;-70
2022/01/23 09:02:36;;;;;;;16.27;10.82;;;;;;;-0.22;63.38;101075.41;1669217;85;21064;-69
2022/01/23 09:05:03;;;;;;;15.43;10.93;;;;;;;-0.16;63.29;101070.78;1669132;86;21574;-71
2022/01/23 09:07:30;;;;;;;16.62;11.18;;;;;;;-0.01;63.29;101075.58;1669090;85;22003;-71
2022/01/23 09:10:03;;;;;;;12.70;8.68;;;;;;;0.10;63.03;101073.87;1669252;85;21107;-70
2022/01/23 09:14:52;;;;;;;16.05;10.20;;;;;;;0.23;62.56;101076.73;1668959;85;21155;-70
2022/01/23 09:17:18;;;;;;;15.88;9.28;;;;;;;0.32;62.20;101081.91;1669214;85;21456;-70
2022/01/23 09:19:47;;;;;;;15.50;9.58;;;;;;;0.33;62.06;101082.22;1669085;85;21150;-70
2022/01/23 09:22:14;;;;;;;12.90;9.00;;;;;;;0.36;61.90;101081.40;1669177;85;20956;-70
2022/01/23 09:24:42;;;;;;;15.40;10.08;;;;;;;0.44;61.87;101091.02;1668021;85;21523;-70
2022/01/23 09:27:18;;;;;;;13.28;9.18;;;;;;;0.48;61.69;101088.84;1667927;86;21522;-70
2022/01/23 09:29:41;;;;;;;14.58;9.85;;;;;;;0.52;61.32;101098.00;1666335;86;21537;-70
2022/01/23 09:32:14;;;;;;;15.23;10.38;;;;;;;0.47;61.27;101101.17;1667848;85;21108;-70
2022/01/23 09:34:42;;;;;;;15.23;10.10;;;;;;;0.60;61.39;101094.81;1667780;85;21098;-69
2022/01/23 09:37:11;;;;;;;13.65;8.80;;;;;;;0.90;61.25;101095.67;1667926;86;21092;-71
2022/01/23 09:39:39;;;;;;;13.60;9.85;;;;;;;1.13;60.86;101089.52;1668009;86;21118;-71
2022/01/23 09:42:23;;;;;;;12.15;9.08;;;;;;;1.25;60.62;101090.70;1667957;85;21087;-70
2022/01/23 09:44:52;;;;;;;12.80;9.20;;;;;;;1.30;60.42;101092.78;1667886;85;21468;-70
2022/01/23 09:47:20;;;;;;;14.13;9.55;;;;;;;1.25;60.24;101097.76;1667369;86;21294;-70
2022/01/23 09:49:47;;;;;;;14.20;10.60;;;;;;;1.12;60.12;101094.48;1668464;85;21623;-69
2022/01/23 09:52:13;;;;;;;14.28;10.53;;;;;;;0.99;60.28;101103.00;1668582;86;20996;-70
2022/01/23 09:54:42;;;;;;;13.93;10.28;;;;;;;0.96;60.60;101111.75;1668628;85;21603;-69
2022/01/23 09:57:09;;;;;;;13.05;9.08;;;;;;;0.99;60.71;101103.00;1668686;85;21110;-69
2022/01/23 09:59:37;;;;;;;15.78;9.85;;;;;;;1.01;60.70;101109.38;1668722;85;21008;-70
2022/01/23 10:02:05;;;;;;;14.90;9.93;;;;;;;0.99;60.71;101103.00;1644049;86;20997;-70
2022/01/23 10:04:31;;;;;;;14.75;9.90;;;;;;;0.98;60.49;101107.92;1668810;86;21172;-70
2022/01/23 10:06:58;;;;;;;14.73;9.90;;;;;;;0.96;60.44;101115.70;1669117;85;20957;-70
2022/01/23 10:09:27;;;;;;;14.20;9.80;;;;;;;0.95;60.56;101105.64;1669240;86;21608;-70
2022/01/23 10:11:53;;;;;;;12.88;8.95;;;;;;;0.98;60.47;101113.17;1669064;85;21088;-70
2022/01/23 10:14:19;;;;;;;14.40;9.28;;;;;;;0.97;60.31;101112.06;1669086;86;21623;-70
2022/01/23 10:16:47;;;;;;;15.43;10.45;;;;;;;0.90;60.29;101111.45;1669044;85;21004;-70
2022/01/23 10:19:15;;;;;;;14.30;10.08;;;;;;;0.91;60.26;101117.53;1669131;86;21181;-70
2022/01/23 10:21:43;;;;;;;14.07;9.33;;;;;;;0.91;60.25;101118.34;1668976;85;21805;-70
2022/01/23 10:24:13;;;;;;;16.27;9.80;;;;;;;0.95;60.27;101128.00;1669175;86;20961;-70
2022/01/23 10:26:54;;;;;;;15.48;11.08;;;;;;;0.93;60.19;101126.06;1668728;85;21595;-70
2022/01/23 10:29:26;;;;;;;18.10;11.90;;;;;;;0.98;60.15;101120.25;1669164;86;21032;-69
2022/01/23 10:32:18;;;;;;;14.25;10.18;;;;;;;1.08;59.94;101123.44;1669134;85;20985;-69
2022/01/23 10:34:55;;;;;;;17.07;10.70;;;;;;;1.21;59.71;101131.52;1686683;84;21117;-68
2022/01/23 10:37:34;;;;;;;15.88;9.75;;;;;;;1.24;59.18;101131.66;1686559;84;21643;-69
2022/01/23 10:40:28;;;;;;;12.80;8.85;;;;;;;1.27;59.08;101139.20;1686589;85;21026;-69
2022/01/23 10:48:45;;;;;;;12.90;8.73;;;;;;;1.29;58.41;101155.63;1669026;86;21167;-69
2022/01/23 10:51:29;;;;;;;12.73;8.68;;;;;;;1.22;58.32;101159.95;1668861;86;20957;-69
2022/01/23 10:54:02;;;;;;;13.10;8.40;;;;;;;1.12;58.24;101162.88;1667681;86;21523;-69
2022/01/23 10:56:32;;;;;;;10.72;7.58;;;;;;;0.91;58.35;101172.77;1668863;86;21159;-70
2022/01/23 10:59:11;;;;;;;11.53;7.50;;;;;;;0.81;58.39;101176.14;1669438;86;21084;-69
2022/01/23 11:01:39;;;;;;;10.38;6.95;;;;;;;0.70;58.32;101182.14;1668491;86;21161;-70
2022/01/23 11:04:12;;;;;;;10.53;7.87;;;;;;;0.65;58.16;101185.78;1669353;85;21609;-69
2022/01/23 11:07:00;;;;;;;11.65;7.95;;;;;;;0.56;58.19;101184.23;1668658;86;20989;-69
2022/01/23 11:09:33;;;;;;;11.48;7.20;;;;;;;0.48;58.34;101192.16;1644996;86;21261;-69
2022/01/23 11:12:13;;;;;;;10.72;7.87;;;;;;;0.39;58.52;101187.94;1649494;86;21002;-69
2022/01/23 11:17:25;;;;;;;10.68;7.22;;;;;;;0.08;58.91;101215.06;1669072;86;21563;-69
2022/01/23 11:19:59;;;;;;;14.87;9.40;;;;;;;-0.07;59.25;101220.70;1669119;85;21071;-68
2022/01/23 11:22:31;;;;;;;14.15;8.28;;;;;;;-0.10;59.57;101227.13;1669188;86;21016;-69
2022/01/23 11:25:01;;;;;;;11.12;7.90;;;;;;;-0.02;59.78;101228.89;1669227;85;21079;-69
2022/01/23 11:27:35;;;;;;;10.88;7.90;;;;;;;0.06;59.85;101226.72;1668968;85;21563;-68
2022/01/23 11:30:09;;;;;;;12.68;7.42;;;;;;;0.11;59.83;101233.11;1669154;86;21496;-68
2022/01/23 11:32:39;;;;;;;11.20;7.65;;;;;;;0.06;59.46;101238.04;1669050;85;21060;-68
2022/01/23 11:35:14;;;;;;;11.20;8.10;;;;;;;-0.08;59.33;101230.89;1669331;84;21073;-68
2022/01/23 11:37:48;;;;;;;12.40;8.40;;;;;;;-0.22;59.48;101240.80;1669273;84;21076;-69
2022/01/23 11:40:32;;;;;;;13.83;8.88;;;;;;;-0.31;59.76;101246.55;1657331;86;21141;-69
2022/01/23 11:50:42;;;;;;;13.05;8.78;;;;;;;-0.42;59.69;101252.98;1657359;86;21073;-69
2022/01/23 11:53:52;;;;;;;11.60;8.00;;;;;;;-0.71;59.63;101266.14;1625521;86;21551;-69
2022/01/23 11:56:33;;;;;;;13.68;8.55;;;;;;;-0.83;59.79;101271.88;1668066;86;20964;-70
2022/01/23 11:59:16;;;;;;;16.27;9.48;;;;;;;-0.93;59.92;101273.36;1669066;85;21079;-69
2022/01/23 12:01:45;;;;;;;17.45;9.05;;;;;;;-0.97;60.04;101276.80;1669017;86;21084;-70
2022/01/23 12:04:19;;;;;;;13.85;8.33;;;;;;;-0.98;60.15;101278.29;1669204;86;21032;-69
2022/01/23 12:07:14;;;;;;;13.90;8.75;;;;;;;-0.96;60.34;101279.74;1668975;86;21146;-69
2022/01/23 12:10:14;;;;;;;13.45;8.60;;;;;;;-0.95;60.57;101282.71;1657521;86;21042;-69
2022/01/23 12:12:44;;;;;;;12.13;8.03;;;;;;;-0.84;60.61;101271.06;1680841;84;21014;-69
2022/01/23 12:18:18;;;;;;;12.18;7.50;;;;;;;-0.67;60.22;101288.92;1669435;86;21091;-69
2022/01/23 12:20:46;;;;;;;13.30;8.15;;;;;;;-0.63;60.10;101296.78;1657557;86;21133;-69
2022/01/23 12:23:14;;;;;;;14.25;9.15;;;;;;;-0.59;60.02;101303.83;1669181;85;21064;-70
2022/01/23 12:25:48;;;;;;;15.40;9.10;;;;;;;-0.61;59.93;101305.82;1669058;86;21104;-69
2022/01/23 12:28:28;;;;;;;15.18;10.25;;;;;;;-0.62;59.87;101319.44;1668913;85;21044;-69
2022/01/23 12:31:03;;;;;;;14.78;8.95;;;;;;;-0.61;59.88;101319.75;1669067;85;21048;-69
2022/01/23 12:33:45;;;;;;;13.50;8.80;;;;;;;-0.58;59.82;101322.55;1683199;84;20979;-69
2022/01/23 12:36:19;;;;;;;13.10;8.15;;;;;;;-0.55;60.03;101334.03;1669104;85;20965;-69
2022/01/23 12:38:53;;;;;;;12.47;8.03;;;;;;;-0.39;59.87;101334.52;1669160;86;21056;-69
2022/01/23 12:41:30;;;;;;;12.63;7.67;;;;;;;-0.22;59.71;101341.87;1667623;86;21480;-70
2022/01/23 12:44:11;;;;;;;11.25;7.30;;;;;;;-0.11;59.32;101354.14;1669265;85;21115;-69
2022/01/23 12:46:44;;;;;;;11.10;7.37;;;;;;;-0.04;58.87;101352.98;1649104;84;21555;-70
2022/01/23 12:49:37;;;;;;;12.07;7.62;;;;;;;-0.10;58.66;101363.68;1668151;86;21087;-71
2022/01/23 12:52:12;;;;;;;12.88;7.40;;;;;;;-0.18;58.71;101366.80;1669218;86;21084;-70
2022/01/23 12:54:58;;;;;;;11.45;7.12;;;;;;;-0.25;58.74;101376.64;1669197;86;21181;-69
2022/01/23 12:57:40;;;;;;;12.88;7.97;;;;;;;-0.30;58.83;101380.25;1668448;84;21067;-70
2022/01/23 13:00:19;;;;;;;11.95;7.75;;;;;;;-0.38;58.77;101377.64;1669094;85;21143;-69
2022/01/23 13:02:48;;;;;;;12.90;7.40;;;;;;;-0.51;58.80;101381.25;1668427;85;21037;-69
2022/01/23 13:05:15;;;;;;;12.33;8.40;;;;;;;-0.65;58.93;101385.84;1668972;86;21005;-70
2022/01/23 13:08:01;;;;;;;12.47;8.53;;;;;;;-0.79;59.06;101388.12;1669261;85;21076;-70
2022/01/23 13:12:54;;;;;;;15.20;9.28;;;;;;;-1.04;59.45;101406.09;1669527;85;21515;-71
2022/01/23 13:15:46;;;;;;;19.93;12.00;;;;;;;-1.16;59.73;101405.56;1669153;85;21080;-69
2022/01/23 13:32:06;;;;;;;17.25;11.03;;;;;;;-1.19;61.21;101438.64;1669526;85;21080;-69
2022/01/23 13:34:33;;;;;;;15.32;10.30;;;;;;;-1.21;61.41;101438.81;1686187;84;21006;-71
2022/01/23 13:37:19;;;;;;;17.12;10.93;;;;;;;-1.21;61.54;101461.59;1668661;86;20961;-68
2022/01/23 13:39:57;;;;;;;17.02;11.50;;;;;;;-1.21;61.66;101469.45;1669343;86;21080;-71
2022/01/23 13:51:44;;;;;;;20.00;11.48;;;;;;;-1.34;62.09;101489.53;1669343;85;21554;-68
2022/01/23 14:02:24;;;;;;;15.50;10.68;;;;;;;-1.51;62.11;101512.20;1668272;86;21546;-68
2022/01/23 14:05:08;;;;;;;16.62;10.20;;;;;;;-1.52;62.25;101511.03;1669040;86;21099;-69
2022/01/23 14:07:34;;;;;;;16.60;9.93;;;;;;;-1.59;62.47;101524.42;1669122;85;21634;-68
2022/01/23 14:10:27;;;;;;;14.73;8.83;;;;;;;-1.60;62.70;101528.02;1668698;85;21056;-69
2022/01/23 14:12:57;;;;;;;13.32;8.55;;;;;;;-1.62;62.79;101523.41;1668729;86;21060;-69
2022/01/23 14:15:30;;;;;;;13.05;8.10;;;;;;;-1.62;62.79;101523.41;1667878;86;21069;-70
2022/01/23 14:18:07;;;;;;;14.07;8.55;;;;;;;-1.66;62.88;101528.95;1669070;85;21064;-69
2022/01/23 14:20:37;;;;;;;12.75;9.03;;;;;;;-1.69;63.13;101532.37;1668980;86;21181;-69
2022/01/23 14:23:18;;;;;;;13.40;8.85;;;;;;;-1.72;63.15;101525.63;1655813;85;21557;-70
2022/01/23 14:25:52;;;;;;;12.40;8.33;;;;;;;-1.69;63.23;101521.40;1686655;84;21042;-68
2022/01/23 14:28:30;;;;;;;13.85;8.45;;;;;;;-1.66;63.27;101524.20;1679137;85;21068;-69
2022/01/23 14:31:07;;;;;;;13.60;8.70;;;;;;;-1.64;63.23;101530.62;1687588;84;21060;-69
2022/01/23 14:33:33;;;;;;;11.97;7.97;;;;;;;-1.63;63.28;101534.38;1686894;84;21168;-70
2022/01/23 14:36:21;;;;;;;11.25;7.10;;;;;;;-1.63;63.30;101535.69;1700981;83;20940;-70
2022/01/23 14:39:00;;;;;;;11.80;7.62;;;;;;;-1.61;63.28;101536.83;1683537;85;21058;-69
2022/01/23 14:41:33;;;;;;;11.18;7.65;;;;;;;-1.59;63.32;101544.06;1683297;85;21040;-69
2022/01/23 14:44:00;;;;;;;13.80;8.58;;;;;;;-1.56;63.38;101546.38;1683543;85;20964;-70
2022/01/23 14:46:26;;;;;;;11.88;8.40;;;;;;;-1.55;63.37;101545.40;1683332;85;21630;-70
2022/01/23 14:48:59;;;;;;;11.90;8.60;;;;;;;-1.57;63.29;101542.13;1683272;85;21118;-70
2022/01/23 14:51:25;;;;;;;15.20;8.28;;;;;;;-1.57;63.37;101551.30;1683089;85;20956;-69
2022/01/23 14:53:52;;;;;;;14.03;9.18;;;;;;;-1.55;63.45;101551.45;1682715;85;21063;-69